Terminal Aerodrome Forecast
Issued by NWS

Home | Current Version | Previous Version | Text Only | Print | Product List | Glossary On
Versions: 1 2 3 4 5 6 7 8 9 10 11 12 13
000
FTUS43 KABR 171700
TAFMBG
TAF
KMBG 171726Z 1718/1818 10008KT P6SM SCT150
     FM180100 13010KT P6SM SCT100
     FM181500 16017KT P6SM SCT250=

USA.gov is the U.S. government's official web portal to all federal, state and local government web resources and services.